sensor_id;sensor_type;location;lat;lon;timestamp;pressure;altitude;pressure_sealevel;temperature;humidity
8334;BME280;4204;43.004;23.052;2023-06-19T00:02:24;93903.41;;;17.44;100.00
8334;BME280;4204;43.004;23.052;2023-06-19T00:04:53;93900.31;;;17.42;100.00
8334;BME280;4204;43.004;23.052;2023-06-19T00:07:21;93900.72;;;17.44;100.00
8334;BME280;4204;43.004;23.052;2023-06-19T00:09:49;93898.78;;;17.44;100.00
8334;BME280;4204;43.004;23.052;2023-06-19T00:12:17;93895.78;;;17.46;100.00
8334;BME280;4204;43.004;23.052;2023-06-19T00:14:44;93905.75;;;17.45;100.00
8334;BME280;4204;43.004;23.052;2023-06-19T00:17:12;93903.06;;;17.45;100.00
8334;BME280;4204;43.004;23.052;2023-06-19T00:19:42;93904.34;;;17.51;100.00
8334;BME280;4204;43.004;23.052;2023-06-19T00:22:12;93906.91;;;17.63;100.00
8334;BME280;4204;43.004;23.052;2023-06-19T00:24:39;93897.44;;;17.50;100.00
8334;BME280;4204;43.004;23.052;2023-06-19T00:27:07;93891.03;;;17.39;100.00
8334;BME280;4204;43.004;23.052;2023-06-19T00:29:35;93891.72;;;17.36;100.00
8334;BME280;4204;43.004;23.052;2023-06-19T00:32:03;93887.91;;;17.37;100.00
8334;BME280;4204;43.004;23.052;2023-06-19T00:34:31;93882.94;;;17.39;100.00
8334;BME280;4204;43.004;23.052;2023-06-19T00:36:59;93880.91;;;17.33;100.00
8334;BME280;4204;43.004;23.052;2023-06-19T00:39:28;93880.75;;;17.26;100.00
8334;BME280;4204;43.004;23.052;2023-06-19T00:41:56;93880.19;;;17.17;100.00
8334;BME280;4204;43.004;23.052;2023-06-19T00:44:23;93877.75;;;17.12;100.00
8334;BME280;4204;43.004;23.052;2023-06-19T00:46:55;93869.03;;;16.99;100.00
8334;BME280;4204;43.004;23.052;2023-06-19T00:49:24;93882.75;;;16.94;100.00
8334;BME280;4204;43.004;23.052;2023-06-19T00:51:52;93870.31;;;17.05;100.00
8334;BME280;4204;43.004;23.052;2023-06-19T00:54:21;93878.66;;;17.00;100.00
8334;BME280;4204;43.004;23.052;2023-06-19T00:56:50;93876.84;;;16.88;100.00
8334;BME280;4204;43.004;23.052;2023-06-19T00:59:20;93878.78;;;16.72;100.00
8334;BME280;4204;43.004;23.052;2023-06-19T01:01:48;93881.75;;;16.52;100.00
8334;BME280;4204;43.004;23.052;2023-06-19T01:04:16;93878.34;;;16.39;100.00
8334;BME280;4204;43.004;23.052;2023-06-19T01:06:50;93883.28;;;16.37;100.00
8334;BME280;4204;43.004;23.052;2023-06-19T01:09:28;93882.56;;;16.52;100.00
8334;BME280;4204;43.004;23.052;2023-06-19T01:12:04;93895.44;;;16.62;100.00
8334;BME280;4204;43.004;23.052;2023-06-19T01:14:38;93894.50;;;16.55;100.00
8334;BME280;4204;43.004;23.052;2023-06-19T01:17:06;93889.81;;;16.36;100.00
8334;BME280;4204;43.004;23.052;2023-06-19T01:19:34;93896.88;;;16.29;100.00
8334;BME280;4204;43.004;23.052;2023-06-19T01:22:05;93893.00;;;16.26;100.00
8334;BME280;4204;43.004;23.052;2023-06-19T01:24:33;93897.84;;;16.20;100.00
8334;BME280;4204;43.004;23.052;2023-06-19T01:27:01;93890.66;;;16.25;100.00
8334;BME280;4204;43.004;23.052;2023-06-19T01:29:29;93890.25;;;16.38;100.00
8334;BME280;4204;43.004;23.052;2023-06-19T01:32:02;93887.28;;;16.43;100.00
8334;BME280;4204;43.004;23.052;2023-06-19T01:34:32;93894.63;;;16.15;100.00
8334;BME280;4204;43.004;23.052;2023-06-19T01:37:01;93890.81;;;16.16;100.00
8334;BME280;4204;43.004;23.052;2023-06-19T01:39:31;93896.25;;;16.04;100.00
8334;BME280;4204;43.004;23.052;2023-06-19T01:42:00;93898.22;;;15.91;100.00
8334;BME280;4204;43.004;23.052;2023-06-19T01:44:30;93897.84;;;15.77;100.00
8334;BME280;4204;43.004;23.052;2023-06-19T01:46:58;93895.97;;;15.93;100.00
8334;BME280;4204;43.004;23.052;2023-06-19T01:49:26;93900.81;;;15.88;100.00
8334;BME280;4204;43.004;23.052;2023-06-19T01:51:53;93903.78;;;15.83;100.00
8334;BME280;4204;43.004;23.052;2023-06-19T01:54:23;93898.28;;;15.79;100.00
8334;BME280;4204;43.004;23.052;2023-06-19T01:56:52;93898.13;;;15.88;100.00
8334;BME280;4204;43.004;23.052;2023-06-19T01:59:20;93904.41;;;15.64;100.00
8334;BME280;4204;43.004;23.052;2023-06-19T02:01:48;93898.75;;;15.54;100.00
8334;BME280;4204;43.004;23.052;2023-06-19T02:04:16;93902.59;;;15.68;100.00
8334;BME280;4204;43.004;23.052;2023-06-19T02:06:44;93905.03;;;15.73;100.00
8334;BME280;4204;43.004;23.052;2023-06-19T02:09:12;93895.19;;;15.77;100.00
8334;BME280;4204;43.004;23.052;2023-06-19T02:11:39;93897.06;;;15.77;100.00
8334;BME280;4204;43.004;23.052;2023-06-19T02:14:09;93900.63;;;15.81;100.00
8334;BME280;4204;43.004;23.052;2023-06-19T02:16:37;93901.47;;;15.69;100.00
8334;BME280;4204;43.004;23.052;2023-06-19T02:19:08;93901.25;;;15.74;100.00
8334;BME280;4204;43.004;23.052;2023-06-19T02:21:38;93898.66;;;15.78;100.00
8334;BME280;4204;43.004;23.052;2023-06-19T02:24:06;93896.97;;;15.73;100.00
8334;BME280;4204;43.004;23.052;2023-06-19T02:26:34;93896.06;;;15.81;100.00
8334;BME280;4204;43.004;23.052;2023-06-19T02:29:01;93907.06;;;15.92;100.00
8334;BME280;4204;43.004;23.052;2023-06-19T02:31:30;93909.66;;;15.88;100.00
8334;BME280;4204;43.004;23.052;2023-06-19T02:33:58;93909.47;;;15.81;100.00
8334;BME280;4204;43.004;23.052;2023-06-19T02:36:26;93918.19;;;15.78;100.00
8334;BME280;4204;43.004;23.052;2023-06-19T02:38:54;93919.50;;;15.84;100.00
8334;BME280;4204;43.004;23.052;2023-06-19T02:41:22;93918.66;;;15.80;100.00
8334;BME280;4204;43.004;23.052;2023-06-19T02:43:50;93916.03;;;15.68;100.00
8334;BME280;4204;43.004;23.052;2023-06-19T02:46:17;93929.69;;;15.51;100.00
8334;BME280;4204;43.004;23.052;2023-06-19T02:48:46;93930.28;;;15.32;100.00
8334;BME280;4204;43.004;23.052;2023-06-19T02:51:15;93921.69;;;15.27;100.00
8334;BME280;4204;43.004;23.052;2023-06-19T02:53:43;93930.19;;;15.17;100.00
8334;BME280;4204;43.004;23.052;2023-06-19T02:56:11;93937.91;;;15.06;100.00
8334;BME280;4204;43.004;23.052;2023-06-19T02:58:39;93924.22;;;14.96;100.00
8334;BME280;4204;43.004;23.052;2023-06-19T03:01:08;93933.13;;;15.00;100.00
8334;BME280;4204;43.004;23.052;2023-06-19T03:03:36;93935.69;;;14.96;100.00
8334;BME280;4204;43.004;23.052;2023-06-19T03:06:06;93939.03;;;15.05;100.00
8334;BME280;4204;43.004;23.052;2023-06-19T03:08:34;93935.94;;;14.91;100.00
8334;BME280;4204;43.004;23.052;2023-06-19T03:11:02;93937.47;;;14.92;100.00
8334;BME280;4204;43.004;23.052;2023-06-19T03:13:44;93934.13;;;15.07;100.00
8334;BME280;4204;43.004;23.052;2023-06-19T03:16:12;93937.03;;;15.14;100.00
8334;BME280;4204;43.004;23.052;2023-06-19T03:18:41;93923.03;;;15.21;100.00
8334;BME280;4204;43.004;23.052;2023-06-19T03:21:12;93923.47;;;15.23;100.00
8334;BME280;4204;43.004;23.052;2023-06-19T03:23:41;93920.69;;;15.19;100.00
8334;BME280;4204;43.004;23.052;2023-06-19T03:26:09;93933.13;;;15.12;100.00
8334;BME280;4204;43.004;23.052;2023-06-19T03:28:39;93921.28;;;15.01;100.00
8334;BME280;4204;43.004;23.052;2023-06-19T03:31:09;93927.78;;;15.00;100.00
8334;BME280;4204;43.004;23.052;2023-06-19T03:33:37;93926.56;;;14.97;100.00
8334;BME280;4204;43.004;23.052;2023-06-19T03:36:05;93925.22;;;14.91;100.00
8334;BME280;4204;43.004;23.052;2023-06-19T03:38:54;93934.50;;;14.94;100.00
8334;BME280;4204;43.004;23.052;2023-06-19T03:41:26;93931.59;;;14.87;100.00
8334;BME280;4204;43.004;23.052;2023-06-19T03:43:55;93924.66;;;14.74;100.00
8334;BME280;4204;43.004;23.052;2023-06-19T03:46:24;93932.94;;;14.69;100.00
8334;BME280;4204;43.004;23.052;2023-06-19T03:48:52;93925.91;;;14.76;100.00
8334;BME280;4204;43.004;23.052;2023-06-19T03:51:20;93921.00;;;14.66;100.00
8334;BME280;4204;43.004;23.052;2023-06-19T03:53:48;93928.13;;;14.74;100.00
8334;BME280;4204;43.004;23.052;2023-06-19T03:56:18;93928.56;;;14.88;100.00
8334;BME280;4204;43.004;23.052;2023-06-19T03:58:46;93923.09;;;14.85;100.00
8334;BME280;4204;43.004;23.052;2023-06-19T04:01:14;93933.28;;;14.79;100.00
8334;BME280;4204;43.004;23.052;2023-06-19T04:03:41;93933.38;;;14.83;100.00
8334;BME280;4204;43.004;23.052;2023-06-19T04:06:09;93929.13;;;14.94;100.00
8334;BME280;4204;43.004;23.052;2023-06-19T04:08:39;93924.22;;;14.96;100.00
8334;BME280;4204;43.004;23.052;2023-06-19T04:11:07;93923.66;;;14.78;100.00
8334;BME280;4204;43.004;23.052;2023-06-19T04:13:37;93924.78;;;14.77;100.00
8334;BME280;4204;43.004;23.052;2023-06-19T04:16:05;93929.00;;;14.78;100.00
8334;BME280;4204;43.004;23.052;2023-06-19T04:18:33;93927.56;;;14.93;100.00
8334;BME280;4204;43.004;23.052;2023-06-19T04:21:01;93921.53;;;15.08;100.00
8334;BME280;4204;43.004;23.052;2023-06-19T04:23:28;93921.63;;;15.11;100.00
8334;BME280;4204;43.004;23.052;2023-06-19T04:25:56;93926.97;;;15.11;100.00
8334;BME280;4204;43.004;23.052;2023-06-19T04:28:24;93920.59;;;15.16;100.00
8334;BME280;4204;43.004;23.052;2023-06-19T04:30:53;93922.72;;;15.22;100.00
8334;BME280;4204;43.004;23.052;2023-06-19T04:33:26;93930.31;;;15.08;100.00
8334;BME280;4204;43.004;23.052;2023-06-19T04:35:54;93915.91;;;15.13;100.00
8334;BME280;4204;43.004;23.052;2023-06-19T04:38:22;93920.78;;;15.23;100.00
8334;BME280;4204;43.004;23.052;2023-06-19T04:40:50;93913.19;;;15.25;100.00
8334;BME280;4204;43.004;23.052;2023-06-19T04:43:18;93912.31;;;15.33;100.00
8334;BME280;4204;43.004;23.052;2023-06-19T04:45:46;93909.81;;;15.40;100.00
8334;BME280;4204;43.004;23.052;2023-06-19T04:48:15;93914.50;;;15.55;100.00
8334;BME280;4204;43.004;23.052;2023-06-19T04:50:43;93918.63;;;15.53;100.00
8334;BME280;4204;43.004;23.052;2023-06-19T04:53:10;93920.19;;;15.54;100.00
8334;BME280;4204;43.004;23.052;2023-06-19T04:55:39;93918.56;;;15.65;100.00
8334;BME280;4204;43.004;23.052;2023-06-19T04:58:06;93922.34;;;15.76;100.00
8334;BME280;4204;43.004;23.052;2023-06-19T05:00:34;93918.72;;;15.84;100.00
8334;BME280;4204;43.004;23.052;2023-06-19T05:03:02;93923.69;;;15.97;100.00
8334;BME280;4204;43.004;23.052;2023-06-19T05:05:31;93927.19;;;16.13;100.00
8334;BME280;4204;43.004;23.052;2023-06-19T05:07:59;93917.16;;;16.26;100.00
8334;BME280;4204;43.004;23.052;2023-06-19T05:10:27;93916.53;;;16.33;100.00
8334;BME280;4204;43.004;23.052;2023-06-19T05:12:55;93910.75;;;16.46;100.00
8334;BME280;4204;43.004;23.052;2023-06-19T05:15:22;93928.09;;;16.49;100.00
8334;BME280;4204;43.004;23.052;2023-06-19T05:17:50;93924.47;;;16.57;100.00
8334;BME280;4204;43.004;23.052;2023-06-19T05:20:18;93928.53;;;16.66;100.00
8334;BME280;4204;43.004;23.052;2023-06-19T05:22:47;93931.66;;;16.84;100.00
8334;BME280;4204;43.004;23.052;2023-06-19T05:25:15;93945.47;;;17.02;100.00
8334;BME280;4204;43.004;23.052;2023-06-19T05:27:42;93934.56;;;17.10;100.00
8334;BME280;4204;43.004;23.052;2023-06-19T05:30:11;93943.47;;;17.14;100.00
8334;BME280;4204;43.004;23.052;2023-06-19T05:32:39;93936.03;;;17.08;100.00
8334;BME280;4204;43.004;23.052;2023-06-19T05:35:07;93948.25;;;17.05;100.00
8334;BME280;4204;43.004;23.052;2023-06-19T05:37:35;93945.31;;;17.10;100.00
8334;BME280;4204;43.004;23.052;2023-06-19T05:40:07;93940.25;;;17.24;100.00
8334;BME280;4204;43.004;23.052;2023-06-19T05:42:35;93944.56;;;17.29;100.00
8334;BME280;4204;43.004;23.052;2023-06-19T05:45:03;93941.53;;;17.30;100.00
8334;BME280;4204;43.004;23.052;2023-06-19T05:47:32;93937.34;;;17.33;100.00
8334;BME280;4204;43.004;23.052;2023-06-19T05:50:00;93943.53;;;17.33;100.00
8334;BME280;4204;43.004;23.052;2023-06-19T05:52:29;93947.28;;;17.48;100.00
8334;BME280;4204;43.004;23.052;2023-06-19T05:54:57;93949.03;;;17.56;100.00
8334;BME280;4204;43.004;23.052;2023-06-19T05:57:27;93951.34;;;17.57;100.00
8334;BME280;4204;43.004;23.052;2023-06-19T05:59:55;93956.19;;;17.67;100.00
8334;BME280;4204;43.004;23.052;2023-06-19T06:02:24;93956.34;;;17.74;100.00
8334;BME280;4204;43.004;23.052;2023-06-19T06:04:54;93960.28;;;17.81;100.00
8334;BME280;4204;43.004;23.052;2023-06-19T06:07:22;93959.09;;;17.97;100.00
8334;BME280;4204;43.004;23.052;2023-06-19T06:09:50;93954.41;;;18.13;100.00
8334;BME280;4204;43.004;23.052;2023-06-19T06:12:18;93959.56;;;18.22;100.00
8334;BME280;4204;43.004;23.052;2023-06-19T06:14:47;93959.13;;;18.39;100.00
8334;BME280;4204;43.004;23.052;2023-06-19T06:17:15;93967.38;;;18.27;100.00
8334;BME280;4204;43.004;23.052;2023-06-19T06:19:43;93964.78;;;18.34;100.00
8334;BME280;4204;43.004;23.052;2023-06-19T06:22:10;93969.28;;;18.45;100.00
8334;BME280;4204;43.004;23.052;2023-06-19T06:24:38;93962.22;;;18.60;100.00
8334;BME280;4204;43.004;23.052;2023-06-19T06:27:06;93962.88;;;18.76;100.00
8334;BME280;4204;43.004;23.052;2023-06-19T06:29:34;93966.03;;;18.82;100.00
8334;BME280;4204;43.004;23.052;2023-06-19T06:32:05;93967.75;;;18.93;100.00
8334;BME280;4204;43.004;23.052;2023-06-19T06:34:33;93970.16;;;18.98;100.00
8334;BME280;4204;43.004;23.052;2023-06-19T06:37:01;93981.06;;;19.05;100.00
8334;BME280;4204;43.004;23.052;2023-06-19T06:39:29;93976.31;;;19.21;100.00
8334;BME280;4204;43.004;23.052;2023-06-19T06:41:57;93982.63;;;19.32;100.00
8334;BME280;4204;43.004;23.052;2023-06-19T06:44:25;93983.53;;;19.40;100.00
8334;BME280;4204;43.004;23.052;2023-06-19T06:46:52;93989.13;;;19.54;100.00
8334;BME280;4204;43.004;23.052;2023-06-19T06:49:23;93987.81;;;19.71;100.00
8334;BME280;4204;43.004;23.052;2023-06-19T06:51:50;93991.38;;;19.78;100.00
8334;BME280;4204;43.004;23.052;2023-06-19T06:54:18;93979.19;;;19.88;100.00
8334;BME280;4204;43.004;23.052;2023-06-19T06:56:46;93982.28;;;19.90;100.00
8334;BME280;4204;43.004;23.052;2023-06-19T06:59:14;93982.34;;;19.93;100.00
8334;BME280;4204;43.004;23.052;2023-06-19T07:01:42;93991.69;;;20.03;100.00
8334;BME280;4204;43.004;23.052;2023-06-19T07:04:10;93982.06;;;20.02;100.00
8334;BME280;4204;43.004;23.052;2023-06-19T07:06:39;93983.94;;;20.28;100.00
8334;BME280;4204;43.004;23.052;2023-06-19T07:09:07;93981.56;;;20.23;100.00
8334;BME280;4204;43.004;23.052;2023-06-19T07:11:35;93989.41;;;20.35;100.00
8334;BME280;4204;43.004;23.052;2023-06-19T07:14:02;93988.28;;;20.36;100.00
8334;BME280;4204;43.004;23.052;2023-06-19T07:16:30;93991.03;;;20.43;100.00
8334;BME280;4204;43.004;23.052;2023-06-19T07:18:58;93996.09;;;20.44;100.00
8334;BME280;4204;43.004;23.052;2023-06-19T07:21:27;93985.75;;;20.53;100.00
8334;BME280;4204;43.004;23.052;2023-06-19T07:23:57;93991.28;;;20.67;100.00
8334;BME280;4204;43.004;23.052;2023-06-19T07:26:25;93990.97;;;20.72;100.00
8334;BME280;4204;43.004;23.052;2023-06-19T07:28:52;93986.38;;;20.80;100.00
8334;BME280;4204;43.004;23.052;2023-06-19T07:31:20;93987.25;;;20.87;100.00
8334;BME280;4204;43.004;23.052;2023-06-19T07:33:48;93972.53;;;20.81;100.00
8334;BME280;4204;43.004;23.052;2023-06-19T07:36:15;93983.38;;;20.88;100.00
8334;BME280;4204;43.004;23.052;2023-06-19T07:38:43;93979.59;;;20.96;100.00
8334;BME280;4204;43.004;23.052;2023-06-19T07:41:12;93976.47;;;20.94;100.00
8334;BME280;4204;43.004;23.052;2023-06-19T07:43:40;93983.47;;;20.99;100.00
8334;BME280;4204;43.004;23.052;2023-06-19T07:46:09;93978.97;;;21.10;100.00
8334;BME280;4204;43.004;23.052;2023-06-19T07:48:37;93980.22;;;21.23;100.00
8334;BME280;4204;43.004;23.052;2023-06-19T07:51:05;93988.81;;;21.36;100.00
8334;BME280;4204;43.004;23.052;2023-06-19T07:53:32;93981.47;;;21.33;100.00
8334;BME280;4204;43.004;23.052;2023-06-19T07:56:00;93980.78;;;21.50;100.00
8334;BME280;4204;43.004;23.052;2023-06-19T07:58:29;93981.72;;;21.71;100.00
8334;BME280;4204;43.004;23.052;2023-06-19T08:00:57;93988.25;;;21.67;100.00
8334;BME280;4204;43.004;23.052;2023-06-19T08:03:25;93988.69;;;21.72;100.00
8334;BME280;4204;43.004;23.052;2023-06-19T08:05:53;93988.69;;;21.76;100.00
8334;BME280;4204;43.004;23.052;2023-06-19T08:08:21;93994.63;;;21.92;100.00
8334;BME280;4204;43.004;23.052;2023-06-19T08:10:49;93991.91;;;21.96;100.00
8334;BME280;4204;43.004;23.052;2023-06-19T08:13:17;93994.25;;;21.97;100.00
8334;BME280;4204;43.004;23.052;2023-06-19T08:15:46;93997.03;;;22.18;100.00
8334;BME280;4204;43.004;23.052;2023-06-19T08:18:14;93992.03;;;22.20;100.00
8334;BME280;4204;43.004;23.052;2023-06-19T08:20:41;93992.03;;;22.20;100.00
8334;BME280;4204;43.004;23.052;2023-06-19T08:23:09;93992.81;;;22.21;100.00
8334;BME280;4204;43.004;23.052;2023-06-19T08:25:37;93993.97;;;22.20;100.00
8334;BME280;4204;43.004;23.052;2023-06-19T08:28:04;93989.34;;;22.27;100.00
8334;BME280;4204;43.004;23.052;2023-06-19T08:30:32;93994.06;;;22.48;100.00
8334;BME280;4204;43.004;23.052;2023-06-19T08:33:02;93984.75;;;22.45;100.00
8334;BME280;4204;43.004;23.052;2023-06-19T08:35:29;93989.81;;;22.50;100.00
8334;BME280;4204;43.004;23.052;2023-06-19T08:37:57;93989.88;;;22.61;100.00
8334;BME280;4204;43.004;23.052;2023-06-19T08:40:25;93996.09;;;22.69;100.00
8334;BME280;4204;43.004;23.052;2023-06-19T08:42:53;93986.78;;;22.66;100.00
8334;BME280;4204;43.004;23.052;2023-06-19T08:45:22;93991.81;;;22.64;100.00
8334;BME280;4204;43.004;23.052;2023-06-19T08:47:57;93977.88;;;22.73;100.00
8334;BME280;4204;43.004;23.052;2023-06-19T08:50:27;93979.06;;;22.79;100.00
8334;BME280;4204;43.004;23.052;2023-06-19T08:52:55;93981.38;;;22.77;100.00
8334;BME280;4204;43.004;23.052;2023-06-19T08:55:22;93995.34;;;22.93;100.00
8334;BME280;4204;43.004;23.052;2023-06-19T08:57:51;93998.09;;;22.96;100.00
8334;BME280;4204;43.004;23.052;2023-06-19T09:00:27;94000.03;;;23.06;100.00
8334;BME280;4204;43.004;23.052;2023-06-19T09:03:00;93988.00;;;23.04;100.00
8334;BME280;4204;43.004;23.052;2023-06-19T09:05:29;93990.31;;;23.02;100.00
8334;BME280;4204;43.004;23.052;2023-06-19T09:07:58;93988.41;;;23.13;100.00
8334;BME280;4204;43.004;23.052;2023-06-19T09:10:27;93996.16;;;23.21;100.00
8334;BME280;4204;43.004;23.052;2023-06-19T09:12:59;93986.88;;;23.37;100.00
8334;BME280;4204;43.004;23.052;2023-06-19T09:15:28;94002.38;;;23.54;100.00
8334;BME280;4204;43.004;23.052;2023-06-19T09:18:05;93979.88;;;23.60;100.00
8334;BME280;4204;43.004;23.052;2023-06-19T09:20:37;93992.28;;;23.54;100.00
8334;BME280;4204;43.004;23.052;2023-06-19T09:23:08;93978.31;;;23.59;100.00
8334;BME280;4204;43.004;23.052;2023-06-19T09:25:44;93981.38;;;23.79;100.00
8334;BME280;4204;43.004;23.052;2023-06-19T09:28:17;93986.03;;;23.78;100.00
8334;BME280;4204;43.004;23.052;2023-06-19T09:30:53;93985.63;;;23.90;100.00
8334;BME280;4204;43.004;23.052;2023-06-19T09:33:20;93982.53;;;23.85;100.00
8334;BME280;4204;43.004;23.052;2023-06-19T09:35:51;93984.84;;;23.97;100.00
8334;BME280;4204;43.004;23.052;2023-06-19T09:38:21;93992.59;;;23.98;100.00
8334;BME280;4204;43.004;23.052;2023-06-19T09:40:52;93975.91;;;23.96;100.00
8334;BME280;4204;43.004;23.052;2023-06-19T09:43:23;93985.97;;;24.03;100.00
8334;BME280;4204;43.004;23.052;2023-06-19T09:45:55;93979.00;;;24.09;100.00
8334;BME280;4204;43.004;23.052;2023-06-19T09:48:27;93985.19;;;24.20;100.00
8334;BME280;4204;43.004;23.052;2023-06-19T09:51:01;93980.50;;;24.24;100.00
8334;BME280;4204;43.004;23.052;2023-06-19T09:53:30;93985.53;;;24.29;100.00
8334;BME280;4204;43.004;23.052;2023-06-19T09:55:59;93976.13;;;24.44;100.00
8334;BME280;4204;43.004;23.052;2023-06-19T09:58:27;93981.88;;;24.64;100.00
8334;BME280;4204;43.004;23.052;2023-06-19T10:00:57;93975.63;;;24.74;100.00
8334;BME280;4204;43.004;23.052;2023-06-19T10:03:31;93969.34;;;24.84;100.00
8334;BME280;4204;43.004;23.052;2023-06-19T10:06:01;93973.22;;;24.83;100.00
8334;BME280;4204;43.004;23.052;2023-06-19T10:08:30;93970.19;;;24.70;100.00
8334;BME280;4204;43.004;23.052;2023-06-19T10:10:58;93974.88;;;24.63;100.00
8334;BME280;4204;43.004;23.052;2023-06-19T10:13:32;93974.16;;;24.52;100.00
8334;BME280;4204;43.004;23.052;2023-06-19T10:16:01;93973.41;;;24.48;100.00
8334;BME280;4204;43.004;23.052;2023-06-19T10:18:28;93980.75;;;24.51;100.00
8334;BME280;4204;43.004;23.052;2023-06-19T10:20:56;93975.69;;;24.60;100.00
8334;BME280;4204;43.004;23.052;2023-06-19T10:23:25;93970.94;;;24.71;100.00
8334;BME280;4204;43.004;23.052;2023-06-19T10:25:56;93963.13;;;24.80;100.00
8334;BME280;4204;43.004;23.052;2023-06-19T10:28:25;93955.34;;;24.82;100.00
8334;BME280;4204;43.004;23.052;2023-06-19T10:30:54;93957.66;;;24.83;100.00
8334;BME280;4204;43.004;23.052;2023-06-19T10:33:23;93947.81;;;25.04;100.00
8334;BME280;4204;43.004;23.052;2023-06-19T10:35:51;93959.72;;;25.24;100.00
8334;BME280;4204;43.004;23.052;2023-06-19T10:38:19;93936.38;;;25.26;100.00
8334;BME280;4204;43.004;23.052;2023-06-19T10:40:48;93944.03;;;25.42;100.00
8334;BME280;4204;43.004;23.052;2023-06-19T10:43:20;93937.28;;;25.53;100.00
8334;BME280;4204;43.004;23.052;2023-06-19T10:45:48;93940.88;;;25.47;100.00
8334;BME280;4204;43.004;23.052;2023-06-19T10:48:19;93939.25;;;25.53;100.00
8334;BME280;4204;43.004;23.052;2023-06-19T10:50:48;93929.84;;;25.61;100.00
8334;BME280;4204;43.004;23.052;2023-06-19T10:53:25;93938.66;;;25.72;100.00
8334;BME280;4204;43.004;23.052;2023-06-19T10:55:59;93935.25;;;25.64;100.00
8334;BME280;4204;43.004;23.052;2023-06-19T10:58:28;93938.38;;;25.63;100.00
8334;BME280;4204;43.004;23.052;2023-06-19T11:00:56;93935.69;;;25.59;100.00
8334;BME280;4204;43.004;23.052;2023-06-19T11:03:24;93935.75;;;25.52;100.00
8334;BME280;4204;43.004;23.052;2023-06-19T11:05:52;93957.59;;;25.49;100.00
8334;BME280;4204;43.004;23.052;2023-06-19T11:08:21;93936.59;;;25.46;100.00
8334;BME280;4204;43.004;23.052;2023-06-19T11:10:50;93934.28;;;25.44;100.00
8334;BME280;4204;43.004;23.052;2023-06-19T11:13:20;93934.72;;;25.36;100.00
8334;BME280;4204;43.004;23.052;2023-06-19T11:15:48;93921.19;;;25.25;100.00
8334;BME280;4204;43.004;23.052;2023-06-19T11:18:17;93933.03;;;25.52;100.00
8334;BME280;4204;43.004;23.052;2023-06-19T11:20:46;93927.00;;;25.72;100.00
8334;BME280;4204;43.004;23.052;2023-06-19T11:23:15;93921.09;;;25.77;100.00
8334;BME280;4204;43.004;23.052;2023-06-19T11:25:43;93928.44;;;25.83;100.00
8334;BME280;4204;43.004;23.052;2023-06-19T11:28:11;93933.03;;;25.90;100.00
8334;BME280;4204;43.004;23.052;2023-06-19T11:30:42;93928.72;;;25.92;100.00
8334;BME280;4204;43.004;23.052;2023-06-19T11:33:17;93932.19;;;25.96;100.00
8334;BME280;4204;43.004;23.052;2023-06-19T11:35:49;93929.09;;;25.94;100.00
8334;BME280;4204;43.004;23.052;2023-06-19T11:38:19;93927.00;;;26.05;100.00
8334;BME280;4204;43.004;23.052;2023-06-19T11:40:48;93923.66;;;25.91;100.00
8334;BME280;4204;43.004;23.052;2023-06-19T11:43:24;93923.09;;;26.06;100.00
8334;BME280;4204;43.004;23.052;2023-06-19T11:46:01;93926.16;;;26.12;100.00
8334;BME280;4204;43.004;23.052;2023-06-19T11:48:30;93912.88;;;26.17;100.00
8334;BME280;4204;43.004;23.052;2023-06-19T11:50:57;93918.28;;;26.21;100.00
8334;BME280;4204;43.004;23.052;2023-06-19T11:53:25;93922.47;;;26.29;100.00
8334;BME280;4204;43.004;23.052;2023-06-19T11:55:53;93916.09;;;26.39;100.00
8334;BME280;4204;43.004;23.052;2023-06-19T11:58:21;93910.94;;;26.44;100.00
8334;BME280;4204;43.004;23.052;2023-06-19T12:00:49;93913.06;;;26.33;100.00
8334;BME280;4204;43.004;23.052;2023-06-19T12:03:18;93918.00;;;26.42;100.00
8334;BME280;4204;43.004;23.052;2023-06-19T12:05:45;93909.47;;;26.40;100.00
8334;BME280;4204;43.004;23.052;2023-06-19T12:08:13;93920.25;;;26.47;100.00
8334;BME280;4204;43.004;23.052;2023-06-19T12:10:43;93917.09;;;26.52;100.00
8334;BME280;4204;43.004;23.052;2023-06-19T12:13:11;93907.81;;;26.46;100.00
8334;BME280;4204;43.004;23.052;2023-06-19T12:15:39;93904.66;;;26.48;100.00
8334;BME280;4204;43.004;23.052;2023-06-19T12:18:07;93904.25;;;26.49;100.00
8334;BME280;4204;43.004;23.052;2023-06-19T12:20:38;93896.91;;;26.46;100.00
8334;BME280;4204;43.004;23.052;2023-06-19T12:23:06;93894.47;;;26.52;100.00
8334;BME280;4204;43.004;23.052;2023-06-19T12:25:34;93905.19;;;26.66;100.00
8334;BME280;4204;43.004;23.052;2023-06-19T12:28:02;93904.94;;;26.57;100.00
8334;BME280;4204;43.004;23.052;2023-06-19T12:30:31;93898.59;;;26.63;100.00
8334;BME280;4204;43.004;23.052;2023-06-19T12:32:59;93890.81;;;26.62;100.00
8334;BME280;4204;43.004;23.052;2023-06-19T12:35:29;93899.88;;;26.85;100.00
8334;BME280;4204;43.004;23.052;2023-06-19T12:37:58;93901.22;;;26.97;100.00
8334;BME280;4204;43.004;23.052;2023-06-19T12:40:26;93902.00;;;26.97;100.00
8334;BME280;4204;43.004;23.052;2023-06-19T12:42:54;93893.75;;;27.01;100.00
8334;BME280;4204;43.004;23.052;2023-06-19T12:45:22;93900.53;;;27.16;100.00
8334;BME280;4204;43.004;23.052;2023-06-19T12:47:49;93901.34;;;27.13;100.00
8334;BME280;4204;43.004;23.052;2023-06-19T12:50:17;93892.81;;;27.11;100.00
8334;BME280;4204;43.004;23.052;2023-06-19T12:52:45;93891.09;;;27.20;100.00
8334;BME280;4204;43.004;23.052;2023-06-19T12:55:15;93889.28;;;27.37;100.00
8334;BME280;4204;43.004;23.052;2023-06-19T12:57:43;93898.94;;;27.42;100.00
8334;BME280;4204;43.004;23.052;2023-06-19T13:00:12;93895.38;;;27.21;100.00
8334;BME280;4204;43.004;23.052;2023-06-19T13:02:40;93895.84;;;27.16;100.00
8334;BME280;4204;43.004;23.052;2023-06-19T13:05:09;93894.78;;;27.10;100.00
8334;BME280;4204;43.004;23.052;2023-06-19T13:07:37;93888.84;;;27.15;100.00
8334;BME280;4204;43.004;23.052;2023-06-19T13:10:06;93890.41;;;27.16;100.00